Time;durP1;ratioP1;P1;durP2;ratioP2;P2;SDS_P1;SDS_P2;PMS_P1;PMS_P2;Temp;Humidity;BMP_temperature;BMP_pressure;BME280_temperature;BME280_humidity;BME280_pressure;Samples;Min_cycle;Max_cycle;Signal;HPM_P1;HPM_P2
2023/12/29 00:02:17;;;;;;;6.93;1.58;;;;;;;14.58;54.83;100739.63;4984118;28;123949;-75
2023/12/29 00:04:44;;;;;;;9.50;1.67;;;;;;;14.58;54.58;100736.94;4992803;28;113298;-75
2023/12/29 00:07:12;;;;;;;8.98;1.30;;;;;;;14.58;54.66;100734.28;5009436;28;114555;-75
2023/12/29 00:09:40;;;;;;;9.70;1.70;;;;;;;14.59;54.61;100735.97;5004186;28;124183;-75
2023/12/29 00:12:09;;;;;;;7.35;1.42;;;;;;;14.60;54.73;100721.72;4999927;28;124426;-75
2023/12/29 00:14:38;;;;;;;8.70;1.77;;;;;;;14.62;54.57;100715.41;5006915;28;115222;-75
2023/12/29 00:17:05;;;;;;;12.32;1.73;;;;;;;14.63;54.58;100722.47;5008466;28;114913;-75
2023/12/29 00:19:33;;;;;;;14.70;1.63;;;;;;;14.63;54.67;100719.81;4996758;28;123792;-75
2023/12/29 00:22:02;;;;;;;8.32;1.30;;;;;;;14.64;54.51;100721.53;5009103;28;123949;-75
2023/12/29 00:24:33;;;;;;;5.10;1.27;;;;;;;14.63;54.63;100714.47;5006990;28;114464;-75
2023/12/29 00:27:01;;;;;;;11.40;1.55;;;;;;;14.63;54.66;100717.13;5010982;28;113973;-74
2023/12/29 00:29:32;;;;;;;7.22;1.50;;;;;;;14.62;54.54;100718.97;4992615;28;123751;-75
2023/12/29 00:32:02;;;;;;;8.82;1.30;;;;;;;14.63;54.64;100719.81;4992345;28;123273;-74
2023/12/29 00:34:31;;;;;;;7.43;1.63;;;;;;;14.62;54.75;100712.75;5007147;28;114341;-74
2023/12/29 00:36:59;;;;;;;6.30;1.50;;;;;;;14.59;54.71;100725.31;4992017;28;115631;-75
2023/12/29 00:39:30;;;;;;;7.30;1.60;;;;;;;14.57;54.93;100713.06;4997488;28;125210;-74
2023/12/29 00:41:58;;;;;;;13.35;1.60;;;;;;;14.54;55.04;100716.75;5005625;28;124454;-75
2023/12/29 00:44:26;;;;;;;9.95;1.55;;;;;;;14.49;55.20;100710.84;4997122;28;113414;-75
2023/12/29 00:46:53;;;;;;;7.18;1.30;;;;;;;14.45;55.36;100696.03;4981233;28;113073;-75
2023/12/29 00:49:22;;;;;;;6.30;1.40;;;;;;;14.40;55.52;100695.44;4998970;28;124187;-75
2023/12/29 00:51:49;;;;;;;6.10;1.40;;;;;;;14.32;55.58;100685.28;4992163;28;122843;-74
2023/12/29 00:54:17;;;;;;;7.88;1.40;;;;;;;14.28;55.69;100673.09;4992734;28;113413;-75
2023/12/29 00:56:49;;;;;;;5.80;1.23;;;;;;;14.24;55.84;100684.03;4990501;28;114257;-75
2023/12/29 00:59:18;;;;;;;9.43;1.40;;;;;;;14.20;56.03;100681.59;4984080;28;124008;-75
2023/12/29 01:01:45;;;;;;;9.57;1.67;;;;;;;14.17;56.21;100686.25;5002737;28;123948;-75
2023/12/29 01:04:13;;;;;;;7.65;1.50;;;;;;;14.15;56.05;100701.47;4990200;28;114612;-74
2023/12/29 01:06:40;;;;;;;10.90;2.15;;;;;;;14.11;56.14;100698.13;5007600;28;114928;-74
2023/12/29 01:09:09;;;;;;;7.10;1.48;;;;;;;14.08;56.46;100687.66;5007724;28;124193;-74
2023/12/29 01:11:36;;;;;;;6.60;1.30;;;;;;;14.06;56.46;100689.56;4991999;28;124335;-74
2023/12/29 01:14:04;;;;;;;9.32;1.60;;;;;;;14.05;56.82;100687.84;4999777;28;114315;-74
2023/12/29 01:16:32;;;;;;;8.02;1.48;;;;;;;14.02;56.57;100698.72;5005911;28;114387;-74
2023/12/29 01:18:59;;;;;;;10.73;2.30;;;;;;;14.00;56.67;100684.63;5007575;28;124706;-74
2023/12/29 01:21:27;;;;;;;6.22;1.40;;;;;;;13.97;56.80;100679.50;5006565;28;124037;-74
2023/12/29 01:23:55;;;;;;;5.75;1.50;;;;;;;13.95;56.94;100676.06;5007886;28;114702;-74
2023/12/29 01:26:22;;;;;;;9.18;1.65;;;;;;;13.93;56.78;100685.97;4992984;28;113523;-75
2023/12/29 01:28:49;;;;;;;10.85;1.73;;;;;;;13.92;57.00;100697.53;5007472;28;124863;-74
2023/12/29 01:31:17;;;;;;;8.98;1.40;;;;;;;13.90;57.31;100696.78;4992564;28;123587;-75
2023/12/29 01:33:45;;;;;;;8.18;1.42;;;;;;;13.89;57.19;100692.44;4976117;28;114215;-74
2023/12/29 01:36:19;;;;;;;7.00;1.42;;;;;;;13.83;57.33;100689.19;4990503;28;112880;-73
2023/12/29 01:38:52;;;;;;;7.25;1.45;;;;;;;13.77;57.37;100684.25;4980437;28;123681;-74
2023/12/29 01:41:20;;;;;;;8.95;1.58;;;;;;;13.73;57.84;100679.19;4997665;28;124530;-74
2023/12/29 01:44:00;;;;;;;12.05;1.80;;;;;;;13.65;57.84;100690.28;5001390;28;114715;-74
2023/12/29 01:46:34;;;;;;;8.32;1.67;;;;;;;13.61;58.20;100688.78;4983026;28;112772;-74
2023/12/29 01:49:01;;;;;;;6.25;1.48;;;;;;;13.57;58.15;100681.94;5000492;28;124193;-73
2023/12/29 01:51:30;;;;;;;9.00;1.67;;;;;;;13.52;58.37;100681.34;4984932;28;123699;-74
2023/12/29 01:53:58;;;;;;;9.85;1.70;;;;;;;13.49;58.23;100684.22;4992840;28;115197;-73
2023/12/29 01:56:25;;;;;;;7.28;1.60;;;;;;;13.44;58.62;100687.97;4995447;28;115117;-73
2023/12/29 01:58:55;;;;;;;8.98;1.50;;;;;;;13.40;58.67;100686.44;4983430;28;122058;-73
2023/12/29 02:01:36;;;;;;;8.55;1.60;;;;;;;13.36;58.81;100690.25;5003391;28;123277;-74
2023/12/29 02:04:05;;;;;;;5.38;1.20;;;;;;;13.32;58.86;100682.56;4999295;28;115087;-74
2023/12/29 02:06:38;;;;;;;6.40;1.42;;;;;;;13.30;59.20;100677.31;4992377;28;113270;-74
2023/12/29 02:09:06;;;;;;;9.82;1.58;;;;;;;13.27;59.09;100674.78;4998344;28;123313;-73
2023/12/29 02:11:33;;;;;;;8.57;1.50;;;;;;;13.25;59.34;100671.38;4984887;28;123720;-74
2023/12/29 02:14:02;;;;;;;7.78;1.88;;;;;;;13.21;59.52;100665.38;4996978;28;114474;-74
2023/12/29 02:16:45;;;;;;;11.68;1.85;;;;;;;13.19;59.79;100674.41;4992817;28;113565;-73
2023/12/29 02:19:38;;;;;;;7.57;1.60;;;;;;;13.19;59.99;100679.72;4991666;28;123540;-74
2023/12/29 02:22:07;;;;;;;10.38;1.45;;;;;;;13.18;59.61;100675.34;4989210;28;124565;-73
2023/12/29 02:24:36;;;;;;;9.13;1.88;;;;;;;13.17;59.59;100684.28;4989616;28;113594;-73
2023/12/29 02:27:07;;;;;;;7.05;1.25;;;;;;;13.15;60.04;100686.16;4988117;28;114232;-74
2023/12/29 02:29:38;;;;;;;5.63;1.80;;;;;;;13.15;60.10;100670.22;5011242;28;124926;-73
2023/12/29 02:32:10;;;;;;;8.75;1.58;;;;;;;13.15;59.96;100672.88;4997887;28;124187;-73
2023/12/29 02:34:40;;;;;;;9.20;1.50;;;;;;;13.14;60.15;100679.13;4996814;28;113835;-74
2023/12/29 02:37:09;;;;;;;8.60;1.42;;;;;;;13.14;60.19;100669.34;5005918;28;114143;-73
2023/12/29 02:39:37;;;;;;;8.82;1.50;;;;;;;13.14;60.27;100663.16;5000622;28;125395;-74
2023/12/29 02:42:04;;;;;;;10.07;1.85;;;;;;;13.13;60.41;100669.41;5003443;28;124051;-73
2023/12/29 02:44:32;;;;;;;8.27;1.58;;;;;;;13.14;60.39;100663.16;5012137;28;115196;-74
2023/12/29 02:46:59;;;;;;;6.18;1.50;;;;;;;13.15;60.40;100664.91;4996917;28;115610;-73
2023/12/29 02:49:27;;;;;;;9.43;1.88;;;;;;;13.16;60.38;100658.63;5002731;28;125638;-74
2023/12/29 02:51:54;;;;;;;10.77;1.77;;;;;;;13.17;60.45;100668.31;5010638;28;124334;-74
2023/12/29 02:54:22;;;;;;;10.65;1.67;;;;;;;13.19;60.35;100661.09;5000056;28;114307;-74
2023/12/29 02:56:49;;;;;;;7.05;1.67;;;;;;;13.19;60.59;100661.09;4993178;28;113100;-74
2023/12/29 02:59:16;;;;;;;6.20;1.48;;;;;;;13.20;60.41;100652.16;5010154;28;123736;-74
2023/12/29 03:01:43;;;;;;;11.77;1.45;;;;;;;13.21;60.57;100659.19;4997010;28;123603;-74
2023/12/29 03:04:11;;;;;;;8.07;1.33;;;;;;;13.22;60.28;100658.25;5001208;28;114340;-73
2023/12/29 03:06:41;;;;;;;5.93;1.48;;;;;;;13.24;60.52;100664.31;5001895;28;112838;-74
2023/12/29 03:09:08;;;;;;;5.47;1.35;;;;;;;13.28;60.52;100665.88;5004128;28;124188;-75
2023/12/29 03:11:35;;;;;;;7.18;1.30;;;;;;;13.29;60.35;100646.28;5000267;28;124093;-74
2023/12/29 03:14:02;;;;;;;8.77;1.40;;;;;;;13.34;60.39;100652.25;5001852;28;114188;-74
2023/12/29 03:16:31;;;;;;;8.20;1.30;;;;;;;13.36;60.25;100653.00;4985973;28;114134;-74
2023/12/29 03:18:58;;;;;;;8.75;1.30;;;;;;;13.41;60.31;100644.72;5002103;28;123294;-74
2023/12/29 03:21:27;;;;;;;7.55;1.45;;;;;;;13.45;60.20;100643.63;5012169;28;122995;-75
2023/12/29 03:23:54;;;;;;;8.75;1.67;;;;;;;13.49;60.03;100652.28;5009593;28;114373;-74
2023/12/29 03:26:23;;;;;;;10.13;1.60;;;;;;;13.53;60.00;100653.81;4994795;28;113715;-74
2023/12/29 03:28:50;;;;;;;7.50;1.30;;;;;;;13.56;59.84;100648.28;4983957;28;124364;-74
2023/12/29 03:31:18;;;;;;;6.80;1.30;;;;;;;13.59;59.81;100650.75;5004720;28;124239;-74
2023/12/29 03:33:45;;;;;;;7.72;1.33;;;;;;;13.60;59.64;100641.84;5006491;28;115460;-73
2023/12/29 03:36:13;;;;;;;6.93;1.55;;;;;;;13.63;59.52;100649.63;5009121;28;115212;-74
2023/12/29 03:38:41;;;;;;;6.78;1.30;;;;;;;13.64;59.43;100651.34;4998333;28;124209;-75
2023/12/29 03:41:09;;;;;;;7.40;1.40;;;;;;;13.66;59.35;100659.25;4995187;28;123884;-74
2023/12/29 03:43:36;;;;;;;9.07;1.45;;;;;;;13.67;59.34;100644.97;4990641;28;114268;-75
2023/12/29 03:46:14;;;;;;;4.90;1.30;;;;;;;13.67;59.13;100651.13;5010313;28;114474;-74
2023/12/29 03:48:41;;;;;;;10.50;1.70;;;;;;;13.69;59.19;100643.91;5008965;28;123159;-74
2023/12/29 03:51:10;;;;;;;10.18;1.40;;;;;;;13.71;59.06;100647.38;5001660;28;124645;-74
2023/12/29 03:53:37;;;;;;;7.75;1.60;;;;;;;13.72;58.93;100643.72;4982071;28;113251;-74
2023/12/29 03:56:13;;;;;;;9.30;1.70;;;;;;;13.73;58.63;100644.59;4989127;28;114151;-74
2023/12/29 03:58:46;;;;;;;7.03;1.60;;;;;;;13.72;58.72;100643.72;5007383;28;124134;-74
2023/12/29 04:01:16;;;;;;;7.00;1.40;;;;;;;13.72;58.79;100637.56;5010544;28;124184;-74
2023/12/29 04:03:44;;;;;;;9.70;1.60;;;;;;;13.73;58.63;100645.47;5004502;28;115035;-75
2023/12/29 04:06:12;;;;;;;8.10;1.75;;;;;;;13.72;58.63;100638.41;4998460;28;114197;-74
2023/12/29 04:08:39;;;;;;;10.50;1.95;;;;;;;13.73;58.78;100640.13;4972143;28;123291;-75
2023/12/29 04:11:07;;;;;;;8.85;1.58;;;;;;;13.76;58.53;100655.91;5010562;28;124442;-74
2023/12/29 04:13:34;;;;;;;11.00;1.63;;;;;;;13.76;58.55;100639.94;5003075;28;114565;-74
2023/12/29 04:16:02;;;;;;;11.65;1.70;;;;;;;13.78;58.64;100635.38;4987596;28;113294;-74
2023/12/29 04:18:29;;;;;;;11.93;2.03;;;;;;;13.79;58.39;100631.75;5007217;28;123256;-74
2023/12/29 04:20:57;;;;;;;11.35;1.75;;;;;;;13.80;58.38;100641.44;5001986;28;124059;-75
2023/12/29 04:23:25;;;;;;;7.43;1.63;;;;;;;13.83;58.41;100632.44;5005214;28;115471;-74
2023/12/29 04:25:52;;;;;;;6.90;1.60;;;;;;;13.84;58.29;100631.47;4993009;28;114488;-75
2023/12/29 04:28:19;;;;;;;11.23;1.90;;;;;;;13.85;58.15;100635.00;5009809;28;124406;-75
2023/12/29 04:30:47;;;;;;;7.35;1.77;;;;;;;13.86;58.25;100628.72;4992966;28;123915;-74
2023/12/29 04:33:14;;;;;;;8.90;1.60;;;;;;;13.86;58.22;100629.56;4993000;28;113639;-75
2023/12/29 04:35:41;;;;;;;8.05;1.58;;;;;;;13.88;58.01;100626.81;4993554;28;113373;-74
2023/12/29 04:38:09;;;;;;;12.65;2.10;;;;;;;13.89;58.00;100652.50;4990613;28;123897;-74
2023/12/29 04:40:36;;;;;;;12.07;1.63;;;;;;;13.88;58.00;100637.47;5008620;28;124026;-75
2023/12/29 04:43:05;;;;;;;11.45;1.88;;;;;;;13.88;57.92;100633.00;5007156;28;114294;-74
2023/12/29 04:45:32;;;;;;;9.35;1.58;;;;;;;13.89;57.95;100631.19;4994231;28;114772;-74
2023/12/29 04:48:00;;;;;;;8.10;1.42;;;;;;;13.88;57.88;100634.78;4993311;28;123901;-74
2023/12/29 04:50:27;;;;;;;7.85;1.60;;;;;;;13.88;57.74;100637.47;4989848;28;123955;-74
2023/12/29 04:52:55;;;;;;;6.60;1.50;;;;;;;13.87;57.79;100631.28;5009358;28;114245;-75
2023/12/29 04:55:22;;;;;;;8.73;1.20;;;;;;;13.89;57.67;100639.19;5010337;28;113633;-74
2023/12/29 04:57:49;;;;;;;10.65;1.60;;;;;;;13.89;57.66;100633.84;4997495;28;123986;-74
2023/12/29 05:00:17;;;;;;;6.70;1.75;;;;;;;13.89;57.61;100633.84;5000321;28;124826;-74
2023/12/29 05:02:44;;;;;;;6.05;1.50;;;;;;;13.87;57.63;100641.94;5000327;28;114580;-74
2023/12/29 05:05:12;;;;;;;8.23;1.42;;;;;;;13.88;57.61;100642.78;5008628;28;115105;-74
2023/12/29 05:07:39;;;;;;;11.88;1.80;;;;;;;13.86;57.68;100640.22;5007599;28;124135;-74
2023/12/29 05:10:08;;;;;;;7.93;1.80;;;;;;;13.86;57.60;100645.53;5006222;28;123935;-74
2023/12/29 05:12:35;;;;;;;12.13;1.75;;;;;;;13.86;57.49;100656.19;4983766;28;115039;-74
2023/12/29 05:15:04;;;;;;;6.15;1.30;;;;;;;13.86;57.33;100652.69;5006147;28;114946;-74
2023/12/29 05:17:31;;;;;;;15.05;1.83;;;;;;;13.85;57.33;100649.16;4991962;28;123494;-74
2023/12/29 05:19:58;;;;;;;7.70;2.08;;;;;;;13.85;57.26;100653.63;5007033;28;123806;-75
2023/12/29 05:22:25;;;;;;;12.18;1.70;;;;;;;13.85;57.35;100648.31;5008836;28;114214;-74
2023/12/29 05:24:57;;;;;;;9.18;1.77;;;;;;;13.85;57.13;100653.63;5007872;28;113826;-74
2023/12/29 05:27:24;;;;;;;16.23;1.83;;;;;;;13.86;57.20;100658.00;5007494;28;123952;-75
2023/12/29 05:29:52;;;;;;;11.20;2.00;;;;;;;13.86;57.11;100655.34;4983904;28;124888;-75
2023/12/29 05:32:19;;;;;;;13.52;1.77;;;;;;;13.85;57.19;100650.97;4992009;28;114256;-75
2023/12/29 05:34:46;;;;;;;8.45;1.80;;;;;;;13.84;57.22;100652.75;4997176;28;114067;-75
2023/12/29 05:37:13;;;;;;;9.40;1.63;;;;;;;13.83;57.12;100657.25;5006897;28;124038;-75
2023/12/29 05:39:43;;;;;;;11.23;1.88;;;;;;;13.82;57.09;100655.53;4984391;28;123148;-75
2023/12/29 05:42:13;;;;;;;11.65;1.80;;;;;;;13.81;56.98;100659.16;5003948;28;114363;-74
2023/12/29 05:44:40;;;;;;;8.25;1.63;;;;;;;13.80;57.00;100662.75;4988550;28;114040;-74
2023/12/29 05:47:09;;;;;;;8.55;1.90;;;;;;;13.79;56.95;100654.88;4991542;28;123438;-74
2023/12/29 05:49:39;;;;;;;9.98;2.17;;;;;;;13.78;57.00;100659.31;4998264;28;124009;-74
2023/12/29 05:52:08;;;;;;;13.63;1.85;;;;;;;13.76;57.12;100645.25;5005535;28;113533;-74
2023/12/29 05:54:35;;;;;;;11.98;1.77;;;;;;;13.76;57.09;100650.56;4975692;28;113962;-74
2023/12/29 05:57:03;;;;;;;10.05;1.73;;;;;;;13.75;57.13;100659.53;5001367;28;124651;-73
2023/12/29 05:59:30;;;;;;;14.73;1.90;;;;;;;13.74;57.06;100641.84;5003398;28;123950;-73
2023/12/29 06:01:57;;;;;;;10.82;2.00;;;;;;;13.73;57.29;100656.09;5001115;28;115392;-74
2023/12/29 06:04:24;;;;;;;13.13;1.73;;;;;;;13.74;57.27;100657.81;5002546;28;115004;-74
2023/12/29 06:06:52;;;;;;;9.75;1.77;;;;;;;13.75;57.35;100664.84;4998056;28;124022;-74
2023/12/29 06:09:19;;;;;;;8.95;1.77;;;;;;;13.74;57.22;100665.78;5002347;28;124239;-74
2023/12/29 06:11:46;;;;;;;9.00;1.60;;;;;;;13.74;57.28;100671.09;5003772;28;114625;-74
2023/12/29 06:14:14;;;;;;;7.90;1.67;;;;;;;13.75;57.35;100658.66;5009863;28;113806;-73
2023/12/29 06:16:41;;;;;;;10.07;1.77;;;;;;;13.75;57.38;100648.88;4994287;28;124002;-74
2023/12/29 06:19:09;;;;;;;9.95;1.63;;;;;;;13.77;57.32;100657.63;5013044;28;124407;-73
2023/12/29 06:21:43;;;;;;;7.10;1.42;;;;;;;13.76;57.31;100655.91;5012463;28;114614;-73
2023/12/29 06:24:13;;;;;;;8.10;1.50;;;;;;;13.76;57.35;100645.25;4997210;28;113825;-74
2023/12/29 06:26:42;;;;;;;8.40;1.95;;;;;;;13.77;57.25;100641.66;5002042;28;123831;-74
2023/12/29 06:29:16;;;;;;;7.55;1.60;;;;;;;13.77;57.45;100652.31;5002739;28;123941;-74
2023/12/29 06:31:43;;;;;;;8.13;1.55;;;;;;;13.77;57.51;100662.94;4994713;28;113362;-74
2023/12/29 06:34:10;;;;;;;10.82;1.73;;;;;;;13.78;57.60;100658.47;5005752;28;114366;-74
2023/12/29 06:36:38;;;;;;;11.38;1.60;;;;;;;13.78;57.55;100661.97;5003145;28;124367;-74
2023/12/29 06:39:05;;;;;;;7.28;1.85;;;;;;;13.77;57.79;100662.94;5009557;28;124189;-73
2023/12/29 06:41:33;;;;;;;7.60;1.35;;;;;;;13.74;57.76;100657.81;5011516;28;114351;-74
2023/12/29 06:44:00;;;;;;;10.23;1.52;;;;;;;13.72;57.95;100649.06;5010705;28;113596;-73
2023/12/29 06:46:27;;;;;;;6.65;1.38;;;;;;;13.69;58.03;100643.91;4988713;28;123526;-73
2023/12/29 06:48:54;;;;;;;6.75;1.45;;;;;;;13.68;58.06;100642.22;5007853;28;124142;-73
2023/12/29 06:51:23;;;;;;;11.65;1.70;;;;;;;13.65;58.24;100647.72;4994342;28;115210;-72
2023/12/29 06:53:50;;;;;;;11.07;1.80;;;;;;;13.64;58.37;100640.69;4994748;28;114495;-74
2023/12/29 06:56:18;;;;;;;9.05;1.48;;;;;;;13.60;58.29;100629.38;4993828;28;123931;-73
2023/12/29 06:58:46;;;;;;;8.43;1.70;;;;;;;13.60;58.11;100639.19;5011510;28;123892;-73
2023/12/29 07:01:13;;;;;;;8.10;1.55;;;;;;;13.60;58.56;100649.81;4985345;28;113322;-73
2023/12/29 07:03:41;;;;;;;10.68;1.35;;;;;;;13.60;58.50;100633.84;5011800;28;114405;-74
2023/12/29 07:06:10;;;;;;;6.43;1.98;;;;;;;13.59;58.68;100637.44;4977973;28;123072;-72
2023/12/29 07:08:38;;;;;;;6.25;1.17;;;;;;;13.59;58.78;100642.78;4992259;28;123970;-73
2023/12/29 07:11:10;;;;;;;7.22;1.52;;;;;;;13.59;58.73;100642.78;4994201;28;114147;-74
2023/12/29 07:13:37;;;;;;;10.75;1.92;;;;;;;13.60;58.77;100644.50;5012223;28;113823;-74
2023/12/29 07:16:05;;;;;;;6.70;1.30;;;;;;;13.59;58.78;100642.78;4994200;28;123717;-73
2023/12/29 07:18:32;;;;;;;8.00;1.45;;;;;;;13.60;58.90;100647.16;4994606;28;123125;-73
2023/12/29 07:21:00;;;;;;;8.10;1.33;;;;;;;13.59;58.83;100648.09;5009301;28;114866;-73
2023/12/29 07:23:27;;;;;;;7.25;1.48;;;;;;;13.60;58.98;100633.84;4987207;28;115567;-73
2023/12/29 07:25:54;;;;;;;8.68;1.50;;;;;;;13.61;58.85;100630.22;5004777;28;124099;-73
2023/12/29 07:28:21;;;;;;;7.40;1.38;;;;;;;13.62;59.02;100622.16;4987522;28;122897;-73
2023/12/29 07:30:49;;;;;;;8.23;1.30;;;;;;;13.64;59.00;100630.06;4990387;28;114848;-74
2023/12/29 07:33:16;;;;;;;7.43;1.42;;;;;;;13.63;58.93;100617.69;5004904;28;114012;-74
2023/12/29 07:35:44;;;;;;;8.38;1.40;;;;;;;13.65;59.07;100621.09;4999784;28;124231;-73
2023/12/29 07:38:11;;;;;;;5.43;1.15;;;;;;;13.66;59.04;100628.16;4985419;28;124579;-73
2023/12/29 07:40:38;;;;;;;7.05;1.40;;;;;;;13.68;59.08;100647.53;5010653;28;115029;-74
2023/12/29 07:43:06;;;;;;;10.63;1.75;;;;;;;13.69;58.97;100632.41;4987961;28;115146;-73
2023/12/29 07:45:33;;;;;;;9.15;1.73;;;;;;;13.69;59.08;100606.66;5004728;28;124055;-73
2023/12/29 07:48:02;;;;;;;2.70;1.00;;;;;;;13.71;59.12;100630.50;5005122;28;124283;-74
2023/12/29 07:50:32;;;;;;;5.35;1.08;;;;;;;13.70;59.01;100623.50;5001392;28;114418;-74
2023/12/29 07:53:02;;;;;;;2.80;1.00;;;;;;;13.71;59.06;100622.53;5002600;28;114603;-73
2023/12/29 07:55:30;;;;;;;5.70;1.20;;;;;;;13.72;59.04;100633.09;5001728;28;124279;-73
2023/12/29 07:57:58;;;;;;;7.85;1.48;;;;;;;13.73;59.00;100629.50;4994795;28;124075;-74
2023/12/29 08:00:26;;;;;;;6.50;1.33;;;;;;;13.74;59.06;100620.53;5007669;28;114418;-74
2023/12/29 08:02:59;;;;;;;5.82;0.93;;;;;;;13.76;59.08;100645.25;5003161;28;114452;-73
2023/12/29 08:05:26;;;;;;;5.70;1.10;;;;;;;13.79;59.05;100644.22;5011009;28;124014;-74
2023/12/29 08:07:54;;;;;;;4.75;0.95;;;;;;;13.79;59.11;100639.75;4989374;28;123597;-74
2023/12/29 08:10:22;;;;;;;3.65;0.82;;;;;;;13.81;58.92;100632.53;4989939;28;114728;-73
2023/12/29 08:12:49;;;;;;;3.28;0.98;;;;;;;13.82;59.06;100634.25;4972724;28;113917;-74
2023/12/29 08:15:17;;;;;;;4.97;1.00;;;;;;;13.84;58.91;100636.78;5004306;28;124094;-74
2023/12/29 08:17:44;;;;;;;6.30;1.10;;;;;;;13.85;58.93;100654.50;5007197;28;124684;-74
2023/12/29 08:20:11;;;;;;;5.93;1.10;;;;;;;13.86;59.04;100650.00;5003154;28;114387;-74
2023/12/29 08:22:38;;;;;;;4.03;0.90;;;;;;;13.89;59.05;100649.84;5005265;28;113889;-74
2023/12/29 08:25:06;;;;;;;5.55;0.90;;;;;;;13.90;58.94;100635.56;4987472;28;123634;-74
2023/12/29 08:27:33;;;;;;;2.67;0.75;;;;;;;13.91;58.89;100642.59;5005034;28;124561;-74
2023/12/29 08:30:02;;;;;;;2.67;0.88;;;;;;;13.93;58.87;100643.34;5010273;28;115135;-74
2023/12/29 08:32:29;;;;;;;2.42;0.70;;;;;;;13.93;58.92;100646.03;5009227;28;115426;-74
2023/12/29 08:34:56;;;;;;;3.53;0.90;;;;;;;13.94;59.06;100642.44;4991513;28;123961;-74
2023/12/29 08:37:24;;;;;;;2.70;0.70;;;;;;;13.94;58.98;100642.44;5007417;28;123959;-74
2023/12/29 08:39:52;;;;;;;3.65;0.85;;;;;;;13.94;59.05;100659.25;5001341;28;114389;-74
2023/12/29 08:42:21;;;;;;;2.20;0.75;;;;;;;13.96;58.74;100651.16;5009090;28;115010;-75
2023/12/29 08:44:48;;;;;;;3.47;0.80;;;;;;;13.96;59.00;100646.69;5010484;28;124598;-74
2023/12/29 08:47:16;;;;;;;3.40;0.70;;;;;;;13.99;59.08;100656.28;4998489;28;124564;-74
2023/12/29 08:49:45;;;;;;;3.63;0.85;;;;;;;14.00;58.89;100658.00;4999811;28;114641;-74
2023/12/29 08:52:13;;;;;;;3.90;0.80;;;;;;;14.00;59.04;100663.34;4988943;28;113983;-75
2023/12/29 08:54:41;;;;;;;2.05;0.70;;;;;;;14.01;58.95;100665.03;5001677;28;124572;-74
2023/12/29 08:57:08;;;;;;;1.65;0.50;;;;;;;14.03;59.07;100657.78;5009424;28;124578;-74
2023/12/29 08:59:36;;;;;;;4.47;0.70;;;;;;;14.04;59.12;100664.84;5002479;28;114139;-74
2023/12/29 09:02:04;;;;;;;3.30;0.80;;;;;;;14.04;59.09;100664.84;5010390;28;114267;-73
2023/12/29 09:04:31;;;;;;;2.88;0.80;;;;;;;14.06;59.10;100681.59;5009796;28;124077;-74
2023/12/29 09:06:58;;;;;;;1.65;0.70;;;;;;;14.08;58.99;100669.03;5008330;28;124625;-74
2023/12/29 09:09:26;;;;;;;4.15;0.80;;;;;;;14.09;58.92;100662.75;5010240;28;114305;-75
2023/12/29 09:11:53;;;;;;;2.22;0.70;;;;;;;14.10;58.92;100666.28;4994826;28;112756;-74
2023/12/29 09:14:21;;;;;;;3.58;0.80;;;;;;;14.11;58.78;100682.16;5001430;28;124460;-74
2023/12/29 09:16:48;;;;;;;1.90;0.70;;;;;;;14.11;58.98;100682.16;4981878;28;121888;-74
2023/12/29 09:19:20;;;;;;;1.80;0.68;;;;;;;14.12;58.88;100673.19;5011196;28;114333;-74
2023/12/29 09:22:01;;;;;;;;;;;;;;;14.10;58.97;100664.47;5011210;28;115225;-74
2023/12/29 09:24:28;;;;;;;3.58;0.82;;;;;;;14.11;58.92;100671.50;4998507;28;124403;-74
2023/12/29 09:26:56;;;;;;;2.78;0.80;;;;;;;14.12;58.86;100683.84;4999157;28;123569;-74
2023/12/29 09:29:23;;;;;;;2.08;0.65;;;;;;;14.11;58.87;100676.84;4995445;28;114151;-74
2023/12/29 09:31:50;;;;;;;1.80;0.60;;;;;;;14.10;58.88;100680.44;5010164;28;113999;-74
2023/12/29 09:34:18;;;;;;;4.07;0.85;;;;;;;14.09;58.92;100694.72;4994296;28;122432;-73
2023/12/29 09:36:45;;;;;;;4.72;0.60;;;;;;;14.09;58.95;100693.84;5000904;28;124217;-73
2023/12/29 09:39:12;;;;;;;3.60;0.60;;;;;;;14.07;59.02;100703.75;5007251;28;113694;-73
2023/12/29 09:41:45;;;;;;;2.30;0.60;;;;;;;14.02;58.91;100699.56;4991784;28;113958;-73
2023/12/29 09:44:14;;;;;;;1.88;0.60;;;;;;;13.97;58.98;100700.78;5007969;28;124137;-74
2023/12/29 09:46:44;;;;;;;1.45;0.60;;;;;;;13.94;59.41;100701.00;5009251;28;124290;-73
2023/12/29 09:49:14;;;;;;;2.13;0.65;;;;;;;13.91;59.36;100695.84;4985037;28;113559;-74
2023/12/29 09:51:44;;;;;;;1.58;0.60;;;;;;;13.89;59.42;100703.09;5000173;28;113913;-73
2023/12/29 09:54:13;;;;;;;2.95;0.60;;;;;;;13.87;59.31;100705.81;5001855;28;124472;-73
2023/12/29 09:56:41;;;;;;;3.22;0.70;;;;;;;13.86;59.53;100697.94;5002872;28;124272;-73
2023/12/29 09:59:10;;;;;;;2.92;0.40;;;;;;;13.83;59.61;100702.50;4992648;28;114068;-73
2023/12/29 10:01:39;;;;;;;1.95;0.63;;;;;;;13.83;59.63;100705.16;5008770;28;114402;-74
2023/12/29 10:04:07;;;;;;;2.33;0.60;;;;;;;13.85;59.64;100693.56;5007103;28;124425;-74
2023/12/29 10:06:38;;;;;;;1.10;0.50;;;;;;;13.87;59.76;100689.00;4990823;28;123563;-73
2023/12/29 10:09:10;;;;;;;2.30;0.80;;;;;;;13.87;59.64;100695.19;4991124;28;114616;-74
2023/12/29 10:11:40;;;;;;;1.23;0.55;;;;;;;13.87;59.84;100699.66;4990939;28;114713;-72
2023/12/29 10:14:30;;;;;;;2.90;0.52;;;;;;;13.89;59.71;100692.44;5009902;28;124323;-74
2023/12/29 10:17:12;;;;;;;0.90;0.40;;;;;;;13.87;59.79;100708.50;4997976;28;123937;-73
2023/12/29 10:19:41;;;;;;;1.95;0.77;;;;;;;13.89;59.78;100698.59;5003254;28;114668;-74
2023/12/29 10:22:30;;;;;;;1.45;0.68;;;;;;;13.89;60.06;100697.75;4998489;28;113577;-74
2023/12/29 10:25:00;;;;;;;1.45;0.57;;;;;;;13.91;59.85;100690.53;5003959;28;124399;-74
2023/12/29 10:27:27;;;;;;;1.83;0.60;;;;;;;13.93;59.89;100691.28;5009037;28;124379;-74
2023/12/29 10:29:56;;;;;;;1.55;0.60;;;;;;;13.95;59.91;100702.69;5009505;28;114290;-73
2023/12/29 10:32:23;;;;;;;0.52;0.50;;;;;;;13.96;59.83;100704.41;5007588;28;114324;-74
2023/12/29 10:35:07;;;;;;;1.00;0.50;;;;;;;13.98;59.84;100703.38;4997265;28;124214;-74
2023/12/29 10:37:34;;;;;;;2.55;0.70;;;;;;;14.01;59.77;100710.28;4993913;28;123413;-74
2023/12/29 10:40:03;;;;;;;1.98;0.55;;;;;;;14.03;59.69;100711.06;4993039;28;114688;-74
2023/12/29 10:42:31;;;;;;;1.45;0.50;;;;;;;14.04;59.77;100714.59;4987297;28;113225;-74
2023/12/29 10:45:07;;;;;;;1.40;0.60;;;;;;;14.06;59.71;100726.84;5003703;28;124074;-74
2023/12/29 10:47:35;;;;;;;1.27;0.57;;;;;;;14.06;59.73;100721.53;4987226;28;123749;-73
2023/12/29 10:50:05;;;;;;;0.60;0.40;;;;;;;14.08;59.92;100724.94;4999564;28;114255;-73
2023/12/29 10:52:33;;;;;;;2.92;0.60;;;;;;;14.08;59.55;100714.31;5013897;28;113954;-73
2023/12/29 10:55:11;;;;;;;1.15;0.60;;;;;;;14.10;59.38;100717.72;5011503;28;123795;-72
2023/12/29 10:57:39;;;;;;;3.95;0.60;;;;;;;14.12;59.51;100713.16;5005991;28;124631;-72
2023/12/29 11:00:07;;;;;;;1.67;0.52;;;;;;;14.13;59.56;100716.69;5007268;28;115836;-72
2023/12/29 11:02:35;;;;;;;1.58;0.50;;;;;;;14.15;59.39;100715.63;5011826;28;114935;-72
2023/12/29 11:05:07;;;;;;;1.48;0.60;;;;;;;14.17;59.41;100716.41;5007705;28;124227;-72
2023/12/29 11:07:36;;;;;;;2.92;0.85;;;;;;;14.16;59.58;100701.34;5001675;28;124033;-72
2023/12/29 11:10:09;;;;;;;2.95;0.50;;;;;;;14.18;59.29;100694.16;4993626;28;115142;-72
2023/12/29 11:12:38;;;;;;;2.38;0.57;;;;;;;14.19;59.35;100695.00;4992647;28;113646;-72
2023/12/29 11:15:08;;;;;;;1.60;0.75;;;;;;;14.20;59.20;100692.25;4993464;28;124379;-72
2023/12/29 11:17:35;;;;;;;1.50;0.60;;;;;;;14.23;59.07;100701.00;5004249;28;124152;-73
2023/12/29 11:20:07;;;;;;;0.80;0.57;;;;;;;14.25;59.14;100699.09;4993312;28;114602;-72
2023/12/29 11:22:34;;;;;;;3.55;0.80;;;;;;;14.28;59.17;100706.88;4996884;28;113674;-72
2023/12/29 11:25:03;;;;;;;3.40;0.60;;;;;;;14.29;59.14;100700.59;5001258;28;124673;-72